sensor_id;sensor_type;location;lat;lon;timestamp;P1;durP1;ratioP1;P2;durP2;ratioP2
9597;SDS011;4837;50.890;4.724;2023-11-22T00:01:27;26.43;;;17.97;;
9597;SDS011;4837;50.890;4.724;2023-11-22T00:03:53;28.00;;;18.87;;
9597;SDS011;4837;50.890;4.724;2023-11-22T00:06:20;27.50;;;18.10;;
9597;SDS011;4837;50.890;4.724;2023-11-22T00:08:46;29.37;;;18.90;;
9597;SDS011;4837;50.890;4.724;2023-11-22T00:11:13;26.97;;;17.17;;
9597;SDS011;4837;50.890;4.724;2023-11-22T00:13:39;24.67;;;17.57;;
9597;SDS011;4837;50.890;4.724;2023-11-22T00:16:06;26.33;;;18.83;;
9597;SDS011;4837;50.890;4.724;2023-11-22T00:18:34;25.67;;;17.57;;
9597;SDS011;4837;50.890;4.724;2023-11-22T00:21:04;29.27;;;18.77;;
9597;SDS011;4837;50.890;4.724;2023-11-22T00:23:30;29.73;;;19.30;;
9597;SDS011;4837;50.890;4.724;2023-11-22T00:25:56;26.10;;;17.90;;
9597;SDS011;4837;50.890;4.724;2023-11-22T00:28:23;26.73;;;18.77;;
9597;SDS011;4837;50.890;4.724;2023-11-22T00:30:49;27.83;;;19.43;;
9597;SDS011;4837;50.890;4.724;2023-11-22T00:33:15;27.23;;;18.40;;
9597;SDS011;4837;50.890;4.724;2023-11-22T00:35:44;31.23;;;19.87;;
9597;SDS011;4837;50.890;4.724;2023-11-22T00:38:10;28.23;;;19.13;;
9597;SDS011;4837;50.890;4.724;2023-11-22T00:40:37;30.67;;;20.67;;
9597;SDS011;4837;50.890;4.724;2023-11-22T00:43:03;32.37;;;20.47;;
9597;SDS011;4837;50.890;4.724;2023-11-22T00:45:29;29.27;;;19.57;;
9597;SDS011;4837;50.890;4.724;2023-11-22T00:47:55;32.57;;;20.03;;
9597;SDS011;4837;50.890;4.724;2023-11-22T00:50:21;28.80;;;19.07;;
9597;SDS011;4837;50.890;4.724;2023-11-22T00:52:48;29.60;;;19.40;;
9597;SDS011;4837;50.890;4.724;2023-11-22T00:55:14;27.57;;;18.77;;
9597;SDS011;4837;50.890;4.724;2023-11-22T00:57:40;30.30;;;20.07;;
9597;SDS011;4837;50.890;4.724;2023-11-22T01:00:07;29.70;;;19.73;;
9597;SDS011;4837;50.890;4.724;2023-11-22T01:02:35;31.47;;;19.40;;
9597;SDS011;4837;50.890;4.724;2023-11-22T01:05:07;28.77;;;18.53;;
9597;SDS011;4837;50.890;4.724;2023-11-22T01:07:38;32.50;;;21.23;;
9597;SDS011;4837;50.890;4.724;2023-11-22T01:10:04;26.47;;;18.57;;
9597;SDS011;4837;50.890;4.724;2023-11-22T01:12:31;29.43;;;19.00;;
9597;SDS011;4837;50.890;4.724;2023-11-22T01:14:57;29.27;;;18.80;;
9597;SDS011;4837;50.890;4.724;2023-11-22T01:17:23;28.83;;;19.10;;
9597;SDS011;4837;50.890;4.724;2023-11-22T01:19:49;34.43;;;19.30;;
9597;SDS011;4837;50.890;4.724;2023-11-22T01:22:18;26.27;;;18.33;;
9597;SDS011;4837;50.890;4.724;2023-11-22T01:24:44;30.47;;;20.67;;
9597;SDS011;4837;50.890;4.724;2023-11-22T01:27:11;32.33;;;20.87;;
9597;SDS011;4837;50.890;4.724;2023-11-22T01:29:37;30.23;;;19.73;;
9597;SDS011;4837;50.890;4.724;2023-11-22T01:32:03;31.80;;;20.10;;
9597;SDS011;4837;50.890;4.724;2023-11-22T01:34:30;27.87;;;19.40;;
9597;SDS011;4837;50.890;4.724;2023-11-22T01:36:56;28.50;;;19.90;;
9597;SDS011;4837;50.890;4.724;2023-11-22T01:39:22;29.83;;;20.07;;
9597;SDS011;4837;50.890;4.724;2023-11-22T01:41:48;31.73;;;19.93;;
9597;SDS011;4837;50.890;4.724;2023-11-22T01:44:15;29.90;;;20.00;;
9597;SDS011;4837;50.890;4.724;2023-11-22T01:46:41;32.73;;;20.37;;
9597;SDS011;4837;50.890;4.724;2023-11-22T01:49:09;28.20;;;19.07;;
9597;SDS011;4837;50.890;4.724;2023-11-22T01:51:36;32.20;;;19.87;;
9597;SDS011;4837;50.890;4.724;2023-11-22T01:54:03;33.13;;;20.07;;
9597;SDS011;4837;50.890;4.724;2023-11-22T01:56:30;31.00;;;20.67;;
9597;SDS011;4837;50.890;4.724;2023-11-22T01:58:56;28.90;;;19.60;;
9597;SDS011;4837;50.890;4.724;2023-11-22T02:01:25;29.10;;;18.77;;
9597;SDS011;4837;50.890;4.724;2023-11-22T02:03:51;30.10;;;19.43;;
9597;SDS011;4837;50.890;4.724;2023-11-22T02:06:18;29.03;;;19.67;;
9597;SDS011;4837;50.890;4.724;2023-11-22T02:08:46;32.93;;;18.83;;
9597;SDS011;4837;50.890;4.724;2023-11-22T02:11:13;31.03;;;20.30;;
9597;SDS011;4837;50.890;4.724;2023-11-22T02:13:47;32.67;;;19.80;;
9597;SDS011;4837;50.890;4.724;2023-11-22T02:16:14;30.80;;;19.40;;
9597;SDS011;4837;50.890;4.724;2023-11-22T02:18:40;30.90;;;19.60;;
9597;SDS011;4837;50.890;4.724;2023-11-22T02:21:07;28.13;;;18.50;;
9597;SDS011;4837;50.890;4.724;2023-11-22T02:23:33;29.60;;;19.10;;
9597;SDS011;4837;50.890;4.724;2023-11-22T02:25:59;29.83;;;18.90;;
9597;SDS011;4837;50.890;4.724;2023-11-22T02:28:25;30.63;;;19.87;;
9597;SDS011;4837;50.890;4.724;2023-11-22T02:30:52;34.97;;;20.37;;
9597;SDS011;4837;50.890;4.724;2023-11-22T02:33:19;30.90;;;19.40;;
9597;SDS011;4837;50.890;4.724;2023-11-22T02:35:45;29.57;;;19.00;;
9597;SDS011;4837;50.890;4.724;2023-11-22T02:38:11;32.07;;;19.43;;
9597;SDS011;4837;50.890;4.724;2023-11-22T02:40:38;30.60;;;18.77;;
9597;SDS011;4837;50.890;4.724;2023-11-22T02:43:04;28.37;;;17.93;;
9597;SDS011;4837;50.890;4.724;2023-11-22T02:45:34;33.37;;;20.37;;
9597;SDS011;4837;50.890;4.724;2023-11-22T02:48:00;30.27;;;19.03;;
9597;SDS011;4837;50.890;4.724;2023-11-22T02:50:28;30.57;;;19.53;;
9597;SDS011;4837;50.890;4.724;2023-11-22T02:52:57;30.77;;;20.80;;
9597;SDS011;4837;50.890;4.724;2023-11-22T02:55:24;31.70;;;20.13;;
9597;SDS011;4837;50.890;4.724;2023-11-22T02:57:50;30.50;;;20.87;;
9597;SDS011;4837;50.890;4.724;2023-11-22T03:00:16;33.67;;;19.77;;
9597;SDS011;4837;50.890;4.724;2023-11-22T03:02:45;35.53;;;21.40;;
9597;SDS011;4837;50.890;4.724;2023-11-22T03:05:12;30.70;;;19.67;;
9597;SDS011;4837;50.890;4.724;2023-11-22T03:07:39;32.77;;;20.40;;
9597;SDS011;4837;50.890;4.724;2023-11-22T03:10:06;31.73;;;20.57;;
9597;SDS011;4837;50.890;4.724;2023-11-22T03:12:32;31.97;;;19.87;;
9597;SDS011;4837;50.890;4.724;2023-11-22T03:14:59;28.20;;;18.67;;
9597;SDS011;4837;50.890;4.724;2023-11-22T03:17:30;33.73;;;19.77;;
9597;SDS011;4837;50.890;4.724;2023-11-22T03:19:56;32.20;;;20.07;;
9597;SDS011;4837;50.890;4.724;2023-11-22T03:22:26;29.77;;;20.27;;
9597;SDS011;4837;50.890;4.724;2023-11-22T03:24:55;30.23;;;20.03;;
9597;SDS011;4837;50.890;4.724;2023-11-22T03:27:21;32.80;;;20.47;;
9597;SDS011;4837;50.890;4.724;2023-11-22T03:29:48;30.50;;;20.20;;
9597;SDS011;4837;50.890;4.724;2023-11-22T03:32:14;30.40;;;19.57;;
9597;SDS011;4837;50.890;4.724;2023-11-22T03:34:41;30.97;;;20.00;;
9597;SDS011;4837;50.890;4.724;2023-11-22T03:37:07;31.40;;;20.27;;
9597;SDS011;4837;50.890;4.724;2023-11-22T03:39:33;30.37;;;19.97;;
9597;SDS011;4837;50.890;4.724;2023-11-22T03:41:59;28.87;;;19.27;;
9597;SDS011;4837;50.890;4.724;2023-11-22T03:44:25;30.80;;;18.40;;
9597;SDS011;4837;50.890;4.724;2023-11-22T03:46:51;31.57;;;19.83;;
9597;SDS011;4837;50.890;4.724;2023-11-22T03:49:17;28.80;;;19.20;;
9597;SDS011;4837;50.890;4.724;2023-11-22T03:51:44;34.90;;;21.13;;
9597;SDS011;4837;50.890;4.724;2023-11-22T03:54:10;30.70;;;19.57;;
9597;SDS011;4837;50.890;4.724;2023-11-22T03:56:37;30.03;;;18.30;;
9597;SDS011;4837;50.890;4.724;2023-11-22T03:59:03;32.20;;;20.03;;
9597;SDS011;4837;50.890;4.724;2023-11-22T04:01:30;34.20;;;20.00;;
9597;SDS011;4837;50.890;4.724;2023-11-22T04:03:56;31.37;;;18.53;;
9597;SDS011;4837;50.890;4.724;2023-11-22T04:06:22;32.90;;;19.27;;
9597;SDS011;4837;50.890;4.724;2023-11-22T04:08:48;31.13;;;18.97;;
9597;SDS011;4837;50.890;4.724;2023-11-22T04:11:15;29.97;;;19.00;;
9597;SDS011;4837;50.890;4.724;2023-11-22T04:13:43;28.90;;;18.83;;
9597;SDS011;4837;50.890;4.724;2023-11-22T04:16:09;32.07;;;20.00;;
9597;SDS011;4837;50.890;4.724;2023-11-22T04:18:37;30.87;;;19.20;;
9597;SDS011;4837;50.890;4.724;2023-11-22T04:21:04;31.47;;;19.27;;
9597;SDS011;4837;50.890;4.724;2023-11-22T04:23:30;28.97;;;19.73;;
9597;SDS011;4837;50.890;4.724;2023-11-22T04:25:57;29.50;;;18.77;;
9597;SDS011;4837;50.890;4.724;2023-11-22T04:28:24;32.00;;;18.90;;
9597;SDS011;4837;50.890;4.724;2023-11-22T04:30:51;29.67;;;18.27;;
9597;SDS011;4837;50.890;4.724;2023-11-22T04:33:17;29.83;;;18.57;;
9597;SDS011;4837;50.890;4.724;2023-11-22T04:35:43;31.30;;;19.23;;
9597;SDS011;4837;50.890;4.724;2023-11-22T04:38:10;30.97;;;17.67;;
9597;SDS011;4837;50.890;4.724;2023-11-22T04:40:36;33.63;;;16.33;;
9597;SDS011;4837;50.890;4.724;2023-11-22T04:43:02;21.37;;;15.07;;
9597;SDS011;4837;50.890;4.724;2023-11-22T04:45:29;30.40;;;14.40;;
9597;SDS011;4837;50.890;4.724;2023-11-22T04:47:55;21.80;;;13.83;;
9597;SDS011;4837;50.890;4.724;2023-11-22T04:50:24;19.73;;;13.17;;
9597;SDS011;4837;50.890;4.724;2023-11-22T04:52:50;28.00;;;13.30;;
9597;SDS011;4837;50.890;4.724;2023-11-22T04:55:16;26.37;;;13.40;;
9597;SDS011;4837;50.890;4.724;2023-11-22T04:57:44;25.57;;;14.17;;
9597;SDS011;4837;50.890;4.724;2023-11-22T05:00:10;26.43;;;13.80;;
9597;SDS011;4837;50.890;4.724;2023-11-22T05:02:37;29.20;;;14.53;;
9597;SDS011;4837;50.890;4.724;2023-11-22T05:05:05;26.73;;;13.73;;
9597;SDS011;4837;50.890;4.724;2023-11-22T05:07:31;22.10;;;13.60;;
9597;SDS011;4837;50.890;4.724;2023-11-22T05:09:57;19.47;;;13.87;;
9597;SDS011;4837;50.890;4.724;2023-11-22T05:12:23;22.03;;;14.53;;
9597;SDS011;4837;50.890;4.724;2023-11-22T05:14:50;23.80;;;15.70;;
9597;SDS011;4837;50.890;4.724;2023-11-22T05:17:16;30.93;;;16.27;;
9597;SDS011;4837;50.890;4.724;2023-11-22T05:19:42;29.50;;;17.27;;
9597;SDS011;4837;50.890;4.724;2023-11-22T05:22:08;49.70;;;19.30;;
9597;SDS011;4837;50.890;4.724;2023-11-22T05:24:34;34.37;;;20.47;;
9597;SDS011;4837;50.890;4.724;2023-11-22T05:27:00;43.10;;;20.60;;
9597;SDS011;4837;50.890;4.724;2023-11-22T05:29:27;33.87;;;20.30;;
9597;SDS011;4837;50.890;4.724;2023-11-22T05:31:53;34.67;;;20.73;;
9597;SDS011;4837;50.890;4.724;2023-11-22T05:34:19;38.03;;;20.33;;
9597;SDS011;4837;50.890;4.724;2023-11-22T05:36:46;36.40;;;21.67;;
9597;SDS011;4837;50.890;4.724;2023-11-22T05:39:13;38.90;;;22.03;;
9597;SDS011;4837;50.890;4.724;2023-11-22T05:41:39;45.77;;;22.77;;
9597;SDS011;4837;50.890;4.724;2023-11-22T05:44:06;40.53;;;22.70;;
9597;SDS011;4837;50.890;4.724;2023-11-22T05:46:33;42.20;;;22.83;;
9597;SDS011;4837;50.890;4.724;2023-11-22T05:48:59;41.27;;;21.57;;
9597;SDS011;4837;50.890;4.724;2023-11-22T05:51:25;40.47;;;22.07;;
9597;SDS011;4837;50.890;4.724;2023-11-22T05:53:52;47.03;;;23.57;;
9597;SDS011;4837;50.890;4.724;2023-11-22T05:56:18;45.53;;;23.80;;
9597;SDS011;4837;50.890;4.724;2023-11-22T05:58:44;43.67;;;23.57;;
9597;SDS011;4837;50.890;4.724;2023-11-22T06:01:10;48.77;;;23.77;;
9597;SDS011;4837;50.890;4.724;2023-11-22T06:03:37;50.23;;;23.67;;
9597;SDS011;4837;50.890;4.724;2023-11-22T06:06:06;45.53;;;23.70;;
9597;SDS011;4837;50.890;4.724;2023-11-22T06:08:33;52.87;;;24.53;;
9597;SDS011;4837;50.890;4.724;2023-11-22T06:10:59;46.63;;;23.17;;
9597;SDS011;4837;50.890;4.724;2023-11-22T06:13:26;48.20;;;22.77;;
9597;SDS011;4837;50.890;4.724;2023-11-22T06:15:52;41.77;;;23.07;;
9597;SDS011;4837;50.890;4.724;2023-11-22T06:18:18;46.43;;;24.27;;
9597;SDS011;4837;50.890;4.724;2023-11-22T06:20:45;41.03;;;22.93;;
9597;SDS011;4837;50.890;4.724;2023-11-22T06:23:14;44.33;;;23.33;;
9597;SDS011;4837;50.890;4.724;2023-11-22T06:25:41;43.17;;;23.33;;
9597;SDS011;4837;50.890;4.724;2023-11-22T06:28:08;43.43;;;23.43;;
9597;SDS011;4837;50.890;4.724;2023-11-22T06:30:34;43.87;;;22.73;;
9597;SDS011;4837;50.890;4.724;2023-11-22T06:33:00;45.13;;;23.43;;
9597;SDS011;4837;50.890;4.724;2023-11-22T06:35:27;42.77;;;23.73;;
9597;SDS011;4837;50.890;4.724;2023-11-22T06:37:53;45.67;;;24.23;;
9597;SDS011;4837;50.890;4.724;2023-11-22T06:40:19;47.67;;;24.23;;
9597;SDS011;4837;50.890;4.724;2023-11-22T06:42:45;43.53;;;23.43;;
9597;SDS011;4837;50.890;4.724;2023-11-22T06:45:12;43.97;;;24.53;;
9597;SDS011;4837;50.890;4.724;2023-11-22T06:47:38;41.73;;;22.53;;
9597;SDS011;4837;50.890;4.724;2023-11-22T06:50:05;38.30;;;22.23;;
9597;SDS011;4837;50.890;4.724;2023-11-22T06:52:40;47.63;;;23.90;;
9597;SDS011;4837;50.890;4.724;2023-11-22T06:55:07;44.27;;;23.40;;
9597;SDS011;4837;50.890;4.724;2023-11-22T06:57:36;47.50;;;23.80;;
9597;SDS011;4837;50.890;4.724;2023-11-22T07:00:03;47.70;;;23.97;;
9597;SDS011;4837;50.890;4.724;2023-11-22T07:02:33;44.77;;;23.00;;
9597;SDS011;4837;50.890;4.724;2023-11-22T07:05:02;47.20;;;24.33;;
9597;SDS011;4837;50.890;4.724;2023-11-22T07:07:31;46.20;;;23.87;;
9597;SDS011;4837;50.890;4.724;2023-11-22T07:09:57;45.23;;;23.07;;
9597;SDS011;4837;50.890;4.724;2023-11-22T07:12:24;43.83;;;23.00;;
9597;SDS011;4837;50.890;4.724;2023-11-22T07:14:51;43.80;;;21.50;;
9597;SDS011;4837;50.890;4.724;2023-11-22T07:17:18;44.00;;;23.10;;
9597;SDS011;4837;50.890;4.724;2023-11-22T07:19:44;42.20;;;21.87;;
9597;SDS011;4837;50.890;4.724;2023-11-22T07:22:13;48.20;;;23.50;;
9597;SDS011;4837;50.890;4.724;2023-11-22T07:24:47;50.30;;;24.07;;
9597;SDS011;4837;50.890;4.724;2023-11-22T07:27:16;48.83;;;23.93;;
9597;SDS011;4837;50.890;4.724;2023-11-22T07:29:44;45.17;;;22.47;;
9597;SDS011;4837;50.890;4.724;2023-11-22T07:32:13;48.10;;;23.40;;
9597;SDS011;4837;50.890;4.724;2023-11-22T07:34:40;52.57;;;24.07;;
9597;SDS011;4837;50.890;4.724;2023-11-22T07:37:07;56.20;;;26.17;;
9597;SDS011;4837;50.890;4.724;2023-11-22T07:39:33;51.07;;;24.33;;
9597;SDS011;4837;50.890;4.724;2023-11-22T07:42:01;53.90;;;25.67;;
9597;SDS011;4837;50.890;4.724;2023-11-22T07:44:27;50.83;;;24.50;;
9597;SDS011;4837;50.890;4.724;2023-11-22T07:46:53;45.03;;;23.57;;
9597;SDS011;4837;50.890;4.724;2023-11-22T07:49:19;51.17;;;23.77;;
9597;SDS011;4837;50.890;4.724;2023-11-22T07:51:48;51.63;;;24.73;;
9597;SDS011;4837;50.890;4.724;2023-11-22T07:54:20;58.20;;;24.97;;
9597;SDS011;4837;50.890;4.724;2023-11-22T07:56:48;49.60;;;24.80;;
9597;SDS011;4837;50.890;4.724;2023-11-22T07:59:14;52.43;;;25.37;;
9597;SDS011;4837;50.890;4.724;2023-11-22T08:01:43;57.80;;;25.87;;
9597;SDS011;4837;50.890;4.724;2023-11-22T08:04:10;51.50;;;24.70;;
9597;SDS011;4837;50.890;4.724;2023-11-22T08:06:36;54.77;;;25.00;;
9597;SDS011;4837;50.890;4.724;2023-11-22T08:09:03;53.77;;;25.43;;
9597;SDS011;4837;50.890;4.724;2023-11-22T08:11:30;51.67;;;24.40;;
9597;SDS011;4837;50.890;4.724;2023-11-22T08:13:57;54.20;;;25.37;;
9597;SDS011;4837;50.890;4.724;2023-11-22T08:16:24;48.53;;;25.20;;
9597;SDS011;4837;50.890;4.724;2023-11-22T08:18:50;53.57;;;25.80;;
9597;SDS011;4837;50.890;4.724;2023-11-22T08:21:17;47.30;;;23.90;;
9597;SDS011;4837;50.890;4.724;2023-11-22T08:23:43;50.43;;;24.03;;
9597;SDS011;4837;50.890;4.724;2023-11-22T08:26:10;47.60;;;24.20;;
9597;SDS011;4837;50.890;4.724;2023-11-22T08:28:37;44.23;;;22.67;;
9597;SDS011;4837;50.890;4.724;2023-11-22T08:31:03;45.73;;;23.13;;
9597;SDS011;4837;50.890;4.724;2023-11-22T08:33:29;48.07;;;24.23;;
9597;SDS011;4837;50.890;4.724;2023-11-22T08:35:55;50.37;;;25.57;;
9597;SDS011;4837;50.890;4.724;2023-11-22T08:38:26;50.03;;;25.37;;
9597;SDS011;4837;50.890;4.724;2023-11-22T08:40:52;45.90;;;23.77;;
9597;SDS011;4837;50.890;4.724;2023-11-22T08:43:19;47.67;;;24.13;;
9597;SDS011;4837;50.890;4.724;2023-11-22T08:45:51;51.87;;;24.03;;
9597;SDS011;4837;50.890;4.724;2023-11-22T08:48:17;48.63;;;23.43;;
9597;SDS011;4837;50.890;4.724;2023-11-22T08:50:43;45.77;;;23.83;;
9597;SDS011;4837;50.890;4.724;2023-11-22T08:53:10;45.57;;;23.57;;
9597;SDS011;4837;50.890;4.724;2023-11-22T08:55:36;46.50;;;23.63;;
9597;SDS011;4837;50.890;4.724;2023-11-22T08:58:02;44.10;;;22.93;;
9597;SDS011;4837;50.890;4.724;2023-11-22T09:00:28;43.87;;;22.60;;
9597;SDS011;4837;50.890;4.724;2023-11-22T09:02:57;42.40;;;22.93;;
9597;SDS011;4837;50.890;4.724;2023-11-22T09:05:23;46.23;;;24.50;;
9597;SDS011;4837;50.890;4.724;2023-11-22T09:07:50;46.90;;;24.73;;
9597;SDS011;4837;50.890;4.724;2023-11-22T09:10:16;39.83;;;22.97;;
9597;SDS011;4837;50.890;4.724;2023-11-22T09:12:44;42.83;;;22.83;;
9597;SDS011;4837;50.890;4.724;2023-11-22T09:15:10;42.80;;;23.40;;
9597;SDS011;4837;50.890;4.724;2023-11-22T09:17:38;42.93;;;22.53;;
9597;SDS011;4837;50.890;4.724;2023-11-22T09:22:44;43.10;;;22.33;;
9597;SDS011;4837;50.890;4.724;2023-11-22T09:25:13;56.27;;;25.07;;
9597;SDS011;4837;50.890;4.724;2023-11-22T09:27:41;38.63;;;22.67;;
9597;SDS011;4837;50.890;4.724;2023-11-22T09:30:07;37.63;;;22.47;;
9597;SDS011;4837;50.890;4.724;2023-11-22T09:32:43;37.47;;;22.03;;
9597;SDS011;4837;50.890;4.724;2023-11-22T09:35:09;36.00;;;22.10;;
9597;SDS011;4837;50.890;4.724;2023-11-22T09:37:35;37.03;;;22.00;;
9597;SDS011;4837;50.890;4.724;2023-11-22T09:40:03;40.00;;;22.80;;
9597;SDS011;4837;50.890;4.724;2023-11-22T09:42:34;34.80;;;21.57;;
9597;SDS011;4837;50.890;4.724;2023-11-22T09:45:00;36.50;;;21.50;;
9597;SDS011;4837;50.890;4.724;2023-11-22T09:47:27;33.83;;;21.73;;
9597;SDS011;4837;50.890;4.724;2023-11-22T09:49:55;34.43;;;21.70;;
9597;SDS011;4837;50.890;4.724;2023-11-22T09:52:23;34.70;;;21.70;;
9597;SDS011;4837;50.890;4.724;2023-11-22T09:54:51;33.03;;;20.20;;
9597;SDS011;4837;50.890;4.724;2023-11-22T09:57:18;35.60;;;21.27;;
9597;SDS011;4837;50.890;4.724;2023-11-22T09:59:45;33.30;;;20.80;;
9597;SDS011;4837;50.890;4.724;2023-11-22T10:02:14;30.93;;;18.93;;
9597;SDS011;4837;50.890;4.724;2023-11-22T10:04:40;30.40;;;19.27;;
9597;SDS011;4837;50.890;4.724;2023-11-22T10:07:07;31.00;;;19.70;;
9597;SDS011;4837;50.890;4.724;2023-11-22T10:09:34;33.27;;;19.37;;
9597;SDS011;4837;50.890;4.724;2023-11-22T10:12:03;29.60;;;19.57;;
9597;SDS011;4837;50.890;4.724;2023-11-22T10:14:29;27.97;;;17.87;;
9597;SDS011;4837;50.890;4.724;2023-11-22T10:16:59;27.40;;;18.67;;
9597;SDS011;4837;50.890;4.724;2023-11-22T10:19:26;24.80;;;16.57;;
9597;SDS011;4837;50.890;4.724;2023-11-22T10:24:45;27.03;;;17.53;;
9597;SDS011;4837;50.890;4.724;2023-11-22T10:27:12;26.83;;;18.13;;
9597;SDS011;4837;50.890;4.724;2023-11-22T10:29:38;26.50;;;17.47;;
9597;SDS011;4837;50.890;4.724;2023-11-22T10:32:04;24.27;;;16.00;;
9597;SDS011;4837;50.890;4.724;2023-11-22T10:34:32;23.17;;;16.10;;
9597;SDS011;4837;50.890;4.724;2023-11-22T10:37:01;23.03;;;16.27;;
9597;SDS011;4837;50.890;4.724;2023-11-22T10:39:29;22.87;;;16.40;;
9597;SDS011;4837;50.890;4.724;2023-11-22T10:41:55;24.67;;;16.80;;
9597;SDS011;4837;50.890;4.724;2023-11-22T10:44:22;24.80;;;16.97;;
9597;SDS011;4837;50.890;4.724;2023-11-22T10:46:48;24.33;;;16.60;;
9597;SDS011;4837;50.890;4.724;2023-11-22T10:49:16;25.33;;;16.17;;
9597;SDS011;4837;50.890;4.724;2023-11-22T10:51:42;24.67;;;16.73;;
9597;SDS011;4837;50.890;4.724;2023-11-22T10:54:10;28.93;;;17.63;;
9597;SDS011;4837;50.890;4.724;2023-11-22T10:56:38;25.57;;;17.20;;
9597;SDS011;4837;50.890;4.724;2023-11-22T10:59:09;27.60;;;17.90;;
9597;SDS011;4837;50.890;4.724;2023-11-22T11:01:37;26.07;;;17.67;;
9597;SDS011;4837;50.890;4.724;2023-11-22T11:04:14;23.93;;;18.03;;
9597;SDS011;4837;50.890;4.724;2023-11-22T11:06:42;25.03;;;16.60;;
9597;SDS011;4837;50.890;4.724;2023-11-22T11:09:11;22.37;;;16.00;;
9597;SDS011;4837;50.890;4.724;2023-11-22T11:11:40;23.17;;;16.70;;
9597;SDS011;4837;50.890;4.724;2023-11-22T11:14:07;25.47;;;16.70;;
9597;SDS011;4837;50.890;4.724;2023-11-22T11:16:37;22.30;;;15.77;;
9597;SDS011;4837;50.890;4.724;2023-11-22T11:19:06;22.90;;;16.30;;
9597;SDS011;4837;50.890;4.724;2023-11-22T11:21:33;21.07;;;15.33;;
9597;SDS011;4837;50.890;4.724;2023-11-22T11:23:59;18.70;;;14.80;;
9597;SDS011;4837;50.890;4.724;2023-11-22T11:26:28;23.07;;;15.10;;
9597;SDS011;4837;50.890;4.724;2023-11-22T11:28:57;21.87;;;14.53;;
9597;SDS011;4837;50.890;4.724;2023-11-22T11:31:23;20.30;;;14.23;;
9597;SDS011;4837;50.890;4.724;2023-11-22T11:38:50;19.10;;;14.63;;
9597;SDS011;4837;50.890;4.724;2023-11-22T11:41:16;19.73;;;15.37;;
9597;SDS011;4837;50.890;4.724;2023-11-22T11:43:43;21.30;;;16.03;;
9597;SDS011;4837;50.890;4.724;2023-11-22T11:46:16;22.13;;;15.30;;
9597;SDS011;4837;50.890;4.724;2023-11-22T11:48:50;20.67;;;14.67;;
9597;SDS011;4837;50.890;4.724;2023-11-22T11:51:17;21.07;;;15.17;;
9597;SDS011;4837;50.890;4.724;2023-11-22T11:53:44;16.93;;;13.50;;
9597;SDS011;4837;50.890;4.724;2023-11-22T11:56:11;16.77;;;14.33;;
9597;SDS011;4837;50.890;4.724;2023-11-22T11:58:37;17.40;;;13.00;;
9597;SDS011;4837;50.890;4.724;2023-11-22T12:01:04;17.43;;;13.83;;
9597;SDS011;4837;50.890;4.724;2023-11-22T12:03:32;18.43;;;13.50;;
9597;SDS011;4837;50.890;4.724;2023-11-22T12:05:58;18.13;;;12.83;;
9597;SDS011;4837;50.890;4.724;2023-11-22T12:08:24;18.67;;;12.98;;
9597;SDS011;4837;50.890;4.724;2023-11-22T12:10:55;17.13;;;12.33;;
9597;SDS011;4837;50.890;4.724;2023-11-22T12:13:21;17.67;;;12.93;;
9597;SDS011;4837;50.890;4.724;2023-11-22T12:15:47;16.50;;;13.57;;
9597;SDS011;4837;50.890;4.724;2023-11-22T12:18:14;19.50;;;13.27;;
9597;SDS011;4837;50.890;4.724;2023-11-22T12:20:41;16.87;;;13.00;;
9597;SDS011;4837;50.890;4.724;2023-11-22T12:23:08;17.10;;;12.20;;
9597;SDS011;4837;50.890;4.724;2023-11-22T12:25:34;15.07;;;11.70;;
9597;SDS011;4837;50.890;4.724;2023-11-22T12:28:01;15.93;;;12.30;;
9597;SDS011;4837;50.890;4.724;2023-11-22T12:32:56;17.20;;;11.50;;
9597;SDS011;4837;50.890;4.724;2023-11-22T12:35:22;16.90;;;12.10;;
9597;SDS011;4837;50.890;4.724;2023-11-22T12:37:49;15.63;;;11.47;;
9597;SDS011;4837;50.890;4.724;2023-11-22T12:40:15;16.13;;;12.50;;
9597;SDS011;4837;50.890;4.724;2023-11-22T12:42:49;17.58;;;12.82;;
9597;SDS011;4837;50.890;4.724;2023-11-22T12:45:22;15.17;;;11.50;;
9597;SDS011;4837;50.890;4.724;2023-11-22T12:47:52;17.17;;;12.13;;
9597;SDS011;4837;50.890;4.724;2023-11-22T12:50:35;16.70;;;11.90;;
9597;SDS011;4837;50.890;4.724;2023-11-22T12:53:12;15.53;;;11.93;;
9597;SDS011;4837;50.890;4.724;2023-11-22T12:55:42;16.60;;;11.68;;
9597;SDS011;4837;50.890;4.724;2023-11-22T12:58:09;15.65;;;11.90;;
9597;SDS011;4837;50.890;4.724;2023-11-22T13:00:35;16.43;;;12.43;;
9597;SDS011;4837;50.890;4.724;2023-11-22T13:03:01;16.60;;;11.93;;
9597;SDS011;4837;50.890;4.724;2023-11-22T13:05:28;16.70;;;11.23;;
9597;SDS011;4837;50.890;4.724;2023-11-22T13:07:54;16.33;;;11.47;;
9597;SDS011;4837;50.890;4.724;2023-11-22T13:10:20;14.82;;;10.95;;
9597;SDS011;4837;50.890;4.724;2023-11-22T13:12:54;17.60;;;11.73;;
9597;SDS011;4837;50.890;4.724;2023-11-22T13:15:23;16.17;;;12.60;;
9597;SDS011;4837;50.890;4.724;2023-11-22T13:17:54;16.93;;;12.03;;
9597;SDS011;4837;50.890;4.724;2023-11-22T13:20:24;14.40;;;11.20;;
9597;SDS011;4837;50.890;4.724;2023-11-22T13:22:54;16.63;;;11.40;;
9597;SDS011;4837;50.890;4.724;2023-11-22T13:25:21;16.05;;;12.20;;
9597;SDS011;4837;50.890;4.724;2023-11-22T13:27:48;16.60;;;11.53;;
9597;SDS011;4837;50.890;4.724;2023-11-22T13:30:15;16.00;;;11.80;;
9597;SDS011;4837;50.890;4.724;2023-11-22T13:32:44;16.23;;;11.83;;
9597;SDS011;4837;50.890;4.724;2023-11-22T13:35:10;17.70;;;11.97;;
9597;SDS011;4837;50.890;4.724;2023-11-22T13:37:43;14.30;;;11.73;;
9597;SDS011;4837;50.890;4.724;2023-11-22T13:40:10;15.63;;;11.87;;
9597;SDS011;4837;50.890;4.724;2023-11-22T13:42:45;15.77;;;11.80;;
9597;SDS011;4837;50.890;4.724;2023-11-22T13:45:13;16.73;;;12.13;;
9597;SDS011;4837;50.890;4.724;2023-11-22T13:47:50;14.77;;;12.03;;
9597;SDS011;4837;50.890;4.724;2023-11-22T13:50:19;17.37;;;12.10;;
9597;SDS011;4837;50.890;4.724;2023-11-22T13:52:50;15.88;;;12.07;;
9597;SDS011;4837;50.890;4.724;2023-11-22T13:55:17;15.57;;;11.83;;
9597;SDS011;4837;50.890;4.724;2023-11-22T13:57:48;15.20;;;11.80;;
9597;SDS011;4837;50.890;4.724;2023-11-22T14:00:15;15.95;;;12.27;;
9597;SDS011;4837;50.890;4.724;2023-11-22T14:02:51;15.35;;;12.07;;
9597;SDS011;4837;50.890;4.724;2023-11-22T14:05:18;15.73;;;11.33;;
9597;SDS011;4837;50.890;4.724;2023-11-22T14:07:44;16.07;;;12.10;;
9597;SDS011;4837;50.890;4.724;2023-11-22T14:10:10;17.27;;;12.18;;
9597;SDS011;4837;50.890;4.724;2023-11-22T14:12:41;19.20;;;12.83;;
9597;SDS011;4837;50.890;4.724;2023-11-22T14:15:08;17.30;;;12.32;;
9597;SDS011;4837;50.890;4.724;2023-11-22T14:17:35;16.53;;;12.00;;
9597;SDS011;4837;50.890;4.724;2023-11-22T14:20:04;16.33;;;11.70;;
9597;SDS011;4837;50.890;4.724;2023-11-22T14:22:32;18.35;;;12.27;;
9597;SDS011;4837;50.890;4.724;2023-11-22T14:24:58;16.95;;;11.43;;
9597;SDS011;4837;50.890;4.724;2023-11-22T14:27:24;15.17;;;11.60;;
9597;SDS011;4837;50.890;4.724;2023-11-22T14:29:53;15.10;;;11.63;;
9597;SDS011;4837;50.890;4.724;2023-11-22T14:32:19;15.10;;;10.70;;
9597;SDS011;4837;50.890;4.724;2023-11-22T14:34:46;21.27;;;12.30;;
9597;SDS011;4837;50.890;4.724;2023-11-22T14:37:12;17.27;;;12.30;;
9597;SDS011;4837;50.890;4.724;2023-11-22T14:39:39;15.53;;;11.10;;
9597;SDS011;4837;50.890;4.724;2023-11-22T14:42:05;15.43;;;11.53;;
9597;SDS011;4837;50.890;4.724;2023-11-22T14:44:35;15.27;;;10.70;;
9597;SDS011;4837;50.890;4.724;2023-11-22T14:47:02;16.67;;;11.90;;
9597;SDS011;4837;50.890;4.724;2023-11-22T14:49:37;15.83;;;11.67;;
9597;SDS011;4837;50.890;4.724;2023-11-22T14:52:03;17.60;;;12.47;;
9597;SDS011;4837;50.890;4.724;2023-11-22T14:54:29;15.90;;;11.20;;
9597;SDS011;4837;50.890;4.724;2023-11-22T14:56:56;15.47;;;10.97;;
9597;SDS011;4837;50.890;4.724;2023-11-22T14:59:27;17.90;;;12.30;;
9597;SDS011;4837;50.890;4.724;2023-11-22T15:01:55;15.20;;;11.43;;